Time;durP1;ratioP1;P1;durP2;ratioP2;P2;SDS_P1;SDS_P2;PMS_P1;PMS_P2;Temp;Humidity;BMP_temperature;BMP_pressure;BME280_temperature;BME280_humidity;BME280_pressure;Samples;Min_cycle;Max_cycle;Signal;HPM_P1;HPM_P2
2023/10/23 00:00:12;;;;;;;8.73;2.92;;;;;;;;;;5066046;28;20039;-47
2023/10/23 00:02:39;;;;;;;7.93;3.08;;;;;;;;;;5045523;28;20052;-46
2023/10/23 00:05:06;;;;;;;10.80;3.30;;;;;;;;;;5054966;28;20106;-45
2023/10/23 00:07:33;;;;;;;14.25;3.05;;;;;;;;;;5057423;28;20028;-47
2023/10/23 00:10:00;;;;;;;8.65;3.10;;;;;;;;;;5052686;28;20044;-46
2023/10/23 00:12:27;;;;;;;9.32;3.22;;;;;;;;;;5052941;28;20080;-47
2023/10/23 00:14:54;;;;;;;10.25;3.17;;;;;;;;;;5056579;28;20033;-46
2023/10/23 00:17:21;;;;;;;8.75;2.78;;;;;;;;;;5068934;28;20039;-45
2023/10/23 00:19:48;;;;;;;15.50;3.40;;;;;;;;;;5056401;28;20043;-45
2023/10/23 00:22:15;;;;;;;14.00;2.92;;;;;;;;;;5060435;28;20024;-46
2023/10/23 00:24:42;;;;;;;22.85;2.97;;;;;;;;;;5055323;28;20466;-46
2023/10/23 00:27:09;;;;;;;11.25;2.95;;;;;;;;;;5070196;28;20036;-48
2023/10/23 00:29:36;;;;;;;9.38;3.03;;;;;;;;;;5070524;28;20079;-47
2023/10/23 00:32:03;;;;;;;11.25;3.08;;;;;;;;;;5070457;28;20395;-45
2023/10/23 00:34:30;;;;;;;10.05;2.75;;;;;;;;;;5070607;28;20036;-47
2023/10/23 00:36:57;;;;;;;12.55;3.25;;;;;;;;;;5061732;28;20039;-46
2023/10/23 00:39:25;;;;;;;11.80;3.35;;;;;;;;;;5058566;28;20520;-45
2023/10/23 00:41:52;;;;;;;8.40;2.63;;;;;;;;;;5047660;28;20029;-46
2023/10/23 00:44:19;;;;;;;9.30;3.22;;;;;;;;;;5058080;28;20027;-46
2023/10/23 00:46:46;;;;;;;11.90;3.47;;;;;;;;;;5072956;28;20055;-50
2023/10/23 00:49:14;;;;;;;8.50;3.40;;;;;;;;;;5073385;28;20056;-45
2023/10/23 00:51:41;;;;;;;10.57;3.00;;;;;;;;;;5073809;28;20556;-45
2023/10/23 00:54:08;;;;;;;10.57;3.33;;;;;;;;;;5073073;28;20036;-48
2023/10/23 00:56:35;;;;;;;12.57;3.60;;;;;;;;;;5073859;28;20028;-46
2023/10/23 00:59:03;;;;;;;8.05;3.00;;;;;;;;;;5073722;28;20414;-46
2023/10/23 01:01:30;;;;;;;12.40;3.38;;;;;;;;;;5073872;28;20086;-47
2023/10/23 01:03:59;;;;;;;10.55;3.13;;;;;;;;;;5073365;28;20386;-46
2023/10/23 01:06:27;;;;;;;10.25;3.50;;;;;;;;;;5073488;28;20044;-45
2023/10/23 01:08:55;;;;;;;10.90;2.95;;;;;;;;;;5073611;28;20035;-46
2023/10/23 01:11:22;;;;;;;11.52;3.10;;;;;;;;;;5074084;28;20024;-45
2023/10/23 01:13:49;;;;;;;9.57;3.45;;;;;;;;;;5073330;28;20025;-46
2023/10/23 01:16:16;;;;;;;18.55;3.30;;;;;;;;;;5073553;28;20043;-46
2023/10/23 01:18:43;;;;;;;11.13;3.55;;;;;;;;;;5073042;28;20024;-46
2023/10/23 01:21:10;;;;;;;11.32;3.38;;;;;;;;;;5073118;28;20386;-45
2023/10/23 01:23:37;;;;;;;12.70;3.53;;;;;;;;;;5073137;28;20400;-46
2023/10/23 01:26:04;;;;;;;12.88;3.22;;;;;;;;;;5073159;28;20033;-46
2023/10/23 01:28:31;;;;;;;11.10;3.00;;;;;;;;;;5072985;28;20060;-46
2023/10/23 01:30:58;;;;;;;10.93;4.20;;;;;;;;;;5073132;28;20089;-48
2023/10/23 01:33:25;;;;;;;12.70;3.20;;;;;;;;;;5072825;28;20131;-46
2023/10/23 01:35:52;;;;;;;11.88;3.45;;;;;;;;;;5072830;28;20028;-46
2023/10/23 01:38:19;;;;;;;11.45;3.42;;;;;;;;;;5073325;28;20039;-47
2023/10/23 01:40:47;;;;;;;9.73;2.88;;;;;;;;;;5071743;28;20422;-46
2023/10/23 01:43:14;;;;;;;10.20;3.05;;;;;;;;;;5064694;28;20491;-45
2023/10/23 01:45:41;;;;;;;14.77;3.05;;;;;;;;;;5068866;28;20032;-47
2023/10/23 01:48:08;;;;;;;11.73;2.90;;;;;;;;;;5069391;28;20054;-46
2023/10/23 01:50:36;;;;;;;9.65;2.80;;;;;;;;;;5066537;28;20096;-45
2023/10/23 01:53:03;;;;;;;11.57;2.97;;;;;;;;;;5059788;28;20064;-48
2023/10/23 01:55:30;;;;;;;11.40;2.72;;;;;;;;;;5067962;28;20032;-46
2023/10/23 01:57:58;;;;;;;9.45;2.80;;;;;;;;;;5054451;28;20039;-46
2023/10/23 02:00:25;;;;;;;9.57;2.70;;;;;;;;;;5058093;28;20039;-46
2023/10/23 02:02:53;;;;;;;8.40;2.90;;;;;;;;;;5064816;28;20041;-45
2023/10/23 02:05:20;;;;;;;12.15;2.83;;;;;;;;;;5061210;28;20119;-47
2023/10/23 02:07:47;;;;;;;7.85;2.30;;;;;;;;;;5063540;28;20025;-46
2023/10/23 02:10:14;;;;;;;8.40;2.83;;;;;;;;;;5061054;28;20039;-46
2023/10/23 02:12:41;;;;;;;14.80;2.67;;;;;;;;;;5072788;28;20828;-47
2023/10/23 02:15:10;;;;;;;9.18;2.47;;;;;;;;;;5072511;28;20094;-47
2023/10/23 02:17:38;;;;;;;8.10;2.63;;;;;;;;;;5072042;28;20449;-46
2023/10/23 02:20:05;;;;;;;8.30;2.53;;;;;;;;;;5072210;28;20025;-47
2023/10/23 02:22:33;;;;;;;7.22;2.70;;;;;;;;;;5071423;28;20475;-48
2023/10/23 02:25:01;;;;;;;11.07;2.70;;;;;;;;;;5071364;28;20039;-46
2023/10/23 02:27:28;;;;;;;10.77;2.80;;;;;;;;;;5071115;28;20056;-47
2023/10/23 02:29:55;;;;;;;6.72;2.30;;;;;;;;;;5069447;28;20066;-47
2023/10/23 02:32:22;;;;;;;7.75;2.42;;;;;;;;;;5071250;28;20479;-47
2023/10/23 02:34:49;;;;;;;8.32;2.40;;;;;;;;;;5071057;28;20110;-50
2023/10/23 02:37:17;;;;;;;5.20;2.20;;;;;;;;;;5071635;28;20032;-47
2023/10/23 02:39:44;;;;;;;10.10;2.33;;;;;;;;;;5071743;28;20059;-46
2023/10/23 02:42:11;;;;;;;5.53;2.40;;;;;;;;;;5071684;28;20032;-45
2023/10/23 02:44:38;;;;;;;5.68;2.25;;;;;;;;;;5071710;28;20020;-45
2023/10/23 02:47:05;;;;;;;10.45;2.38;;;;;;;;;;5071504;28;20023;-49
2023/10/23 02:49:32;;;;;;;6.57;2.10;;;;;;;;;;5071555;28;20123;-46
2023/10/23 02:51:59;;;;;;;6.50;2.33;;;;;;;;;;5054359;28;20497;-46
2023/10/23 02:54:26;;;;;;;5.45;2.28;;;;;;;;;;5071995;28;20035;-47
2023/10/23 02:56:53;;;;;;;6.50;2.28;;;;;;;;;;5071932;28;20032;-47
2023/10/23 02:59:21;;;;;;;7.18;2.90;;;;;;;;;;5071908;28;20017;-51
2023/10/23 03:01:48;;;;;;;11.70;2.95;;;;;;;;;;5071875;28;20043;-50
2023/10/23 03:04:15;;;;;;;7.88;2.42;;;;;;;;;;5071124;28;20024;-46
2023/10/23 03:06:42;;;;;;;6.85;2.30;;;;;;;;;;5071242;28;20040;-46
2023/10/23 03:09:09;;;;;;;9.00;2.53;;;;;;;;;;5070577;28;20028;-46
2023/10/23 03:11:36;;;;;;;8.93;2.50;;;;;;;;;;5071764;28;20027;-46
2023/10/23 03:14:03;;;;;;;6.28;2.45;;;;;;;;;;5071631;28;20109;-45
2023/10/23 03:16:30;;;;;;;5.55;2.15;;;;;;;;;;5071936;28;20036;-49
2023/10/23 03:18:57;;;;;;;8.85;2.60;;;;;;;;;;5053585;28;20044;-46
2023/10/23 03:21:24;;;;;;;5.47;2.25;;;;;;;;;;5071624;28;20021;-46
2023/10/23 03:23:51;;;;;;;5.38;2.38;;;;;;;;;;5071707;28;20398;-47
2023/10/23 03:26:18;;;;;;;11.10;2.45;;;;;;;;;;5071490;28;20564;-46
2023/10/23 03:28:45;;;;;;;4.90;2.20;;;;;;;;;;5071000;28;20112;-46
2023/10/23 03:31:12;;;;;;;6.32;2.30;;;;;;;;;;5070882;28;20031;-47
2023/10/23 03:33:41;;;;;;;5.50;2.17;;;;;;;;;;5071357;28;20052;-46
2023/10/23 03:36:08;;;;;;;6.63;2.25;;;;;;;;;;5071253;28;20059;-45
2023/10/23 03:38:35;;;;;;;5.60;2.00;;;;;;;;;;5071594;28;20021;-45
2023/10/23 03:41:02;;;;;;;7.40;2.10;;;;;;;;;;5071462;28;20062;-46
2023/10/23 03:43:30;;;;;;;3.92;1.77;;;;;;;;;;5071513;28;20037;-45
2023/10/23 03:45:57;;;;;;;5.90;2.33;;;;;;;;;;5071544;28;20784;-46
2023/10/23 03:48:24;;;;;;;5.43;2.15;;;;;;;;;;5071198;28;20167;-45
2023/10/23 03:50:51;;;;;;;6.30;2.33;;;;;;;;;;5071213;28;20024;-46
2023/10/23 03:53:18;;;;;;;8.02;2.13;;;;;;;;;;5071260;28;20028;-45
2023/10/23 03:55:45;;;;;;;6.30;2.13;;;;;;;;;;5071381;28;20040;-45
2023/10/23 03:58:12;;;;;;;4.82;2.22;;;;;;;;;;5071272;28;20050;-46
2023/10/23 04:00:39;;;;;;;7.65;2.00;;;;;;;;;;5071362;28;20028;-47
2023/10/23 04:03:06;;;;;;;6.50;2.10;;;;;;;;;;5071033;28;20029;-46
2023/10/23 04:05:33;;;;;;;4.50;1.70;;;;;;;;;;5071298;28;20020;-45
2023/10/23 04:07:59;;;;;;;4.10;1.65;;;;;;;;;;5071289;28;20031;-48
2023/10/23 04:10:27;;;;;;;4.13;1.70;;;;;;;;;;5071090;28;20075;-45
2023/10/23 04:12:54;;;;;;;5.97;2.20;;;;;;;;;;5070924;28;20033;-46
2023/10/23 04:15:20;;;;;;;4.07;1.70;;;;;;;;;;5071298;28;20388;-46
2023/10/23 04:17:48;;;;;;;3.22;1.50;;;;;;;;;;5071299;28;20021;-45
2023/10/23 04:20:15;;;;;;;2.95;1.80;;;;;;;;;;5071376;28;20051;-47
2023/10/23 04:22:42;;;;;;;5.50;1.95;;;;;;;;;;5074944;28;20456;-46
2023/10/23 04:25:09;;;;;;;14.60;1.77;;;;;;;;;;5075061;28;20059;-49
2023/10/23 04:27:36;;;;;;;13.35;1.80;;;;;;;;;;5074791;28;20035;-49
2023/10/23 04:30:07;;;;;;;4.88;1.98;;;;;;;;;;5074950;28;20029;-46
2023/10/23 04:32:34;;;;;;;5.40;2.10;;;;;;;;;;5074812;28;20025;-46
2023/10/23 04:35:01;;;;;;;4.30;2.00;;;;;;;;;;5074757;28;20039;-46
2023/10/23 04:37:28;;;;;;;3.33;1.65;;;;;;;;;;5074743;28;20036;-46
2023/10/23 04:39:55;;;;;;;6.65;2.20;;;;;;;;;;5074792;28;20028;-49
2023/10/23 04:42:22;;;;;;;5.35;1.90;;;;;;;;;;5074559;28;20402;-46
2023/10/23 04:44:49;;;;;;;5.80;1.73;;;;;;;;;;5074655;28;20029;-45
2023/10/23 04:47:16;;;;;;;5.45;2.10;;;;;;;;;;5074688;28;20032;-45
2023/10/23 04:49:43;;;;;;;6.50;2.15;;;;;;;;;;5074326;28;20045;-45
2023/10/23 04:52:10;;;;;;;4.40;1.80;;;;;;;;;;5074529;28;20029;-46
2023/10/23 04:54:36;;;;;;;4.05;1.83;;;;;;;;;;5074487;28;20032;-45
2023/10/23 04:57:04;;;;;;;4.97;2.00;;;;;;;;;;5074431;28;20035;-45
2023/10/23 04:59:31;;;;;;;6.05;1.92;;;;;;;;;;5073078;28;20418;-46
2023/10/23 05:01:58;;;;;;;5.60;2.20;;;;;;;;;;5074200;28;20032;-49
2023/10/23 05:04:24;;;;;;;6.07;2.20;;;;;;;;;;5074388;28;20055;-46
2023/10/23 05:06:52;;;;;;;4.22;2.03;;;;;;;;;;5074351;28;20034;-46
2023/10/23 05:09:19;;;;;;;6.20;2.47;;;;;;;;;;5074113;28;20051;-45
2023/10/23 05:11:46;;;;;;;4.80;2.20;;;;;;;;;;5074256;28;20054;-45
2023/10/23 05:14:13;;;;;;;10.18;2.25;;;;;;;;;;5073998;28;20387;-46
2023/10/23 05:16:41;;;;;;;5.70;2.00;;;;;;;;;;5074051;28;20020;-46
2023/10/23 05:19:10;;;;;;;3.92;1.70;;;;;;;;;;5074174;28;20108;-45
2023/10/23 05:21:37;;;;;;;6.22;2.40;;;;;;;;;;5074037;28;20017;-45
2023/10/23 05:24:05;;;;;;;7.30;2.70;;;;;;;;;;5073838;28;20028;-45
2023/10/23 05:26:32;;;;;;;5.60;2.20;;;;;;;;;;5073914;28;20085;-45
2023/10/23 05:29:00;;;;;;;6.55;2.50;;;;;;;;;;5073913;28;20028;-45
2023/10/23 05:31:27;;;;;;;7.03;2.47;;;;;;;;;;5073567;28;20543;-45
2023/10/23 05:33:54;;;;;;;6.07;2.00;;;;;;;;;;5072737;28;20036;-46
2023/10/23 05:36:21;;;;;;;6.78;2.40;;;;;;;;;;5073578;28;20440;-45
2023/10/23 05:38:48;;;;;;;6.28;2.60;;;;;;;;;;5073695;28;20029;-46
2023/10/23 05:41:15;;;;;;;4.85;2.17;;;;;;;;;;5073531;28;20035;-45
2023/10/23 05:43:44;;;;;;;5.70;2.22;;;;;;;;;;5073523;28;20043;-45
2023/10/23 05:46:11;;;;;;;5.40;2.42;;;;;;;;;;5073319;28;20041;-45
2023/10/23 05:48:38;;;;;;;7.45;2.70;;;;;;;;;;5073215;28;20056;-45
2023/10/23 05:51:06;;;;;;;5.03;2.35;;;;;;;;;;5073397;28;20020;-45
2023/10/23 05:53:34;;;;;;;6.43;2.53;;;;;;;;;;5073146;28;20047;-45
2023/10/23 05:56:08;;;;;;;6.28;2.40;;;;;;;;;;5073237;28;20056;-47
2023/10/23 05:58:35;;;;;;;7.80;2.58;;;;;;;;;;5073274;28;20027;-45
2023/10/23 06:01:09;;;;;;;6.03;2.60;;;;;;;;;;5071027;28;20135;-47
2023/10/23 06:03:37;;;;;;;7.80;2.20;;;;;;;;;;5073049;28;20029;-47
2023/10/23 06:06:04;;;;;;;6.47;2.53;;;;;;;;;;5073112;28;20078;-46
2023/10/23 06:08:31;;;;;;;6.00;2.58;;;;;;;;;;5073147;28;20023;-47
2023/10/23 06:10:59;;;;;;;5.60;2.05;;;;;;;;;;5073003;28;20082;-48
2023/10/23 06:13:26;;;;;;;7.78;2.75;;;;;;;;;;5072845;28;20036;-47
2023/10/23 06:15:53;;;;;;;8.40;3.38;;;;;;;;;;5054952;28;20034;-49
2023/10/23 06:18:20;;;;;;;5.88;2.50;;;;;;;;;;5073191;28;20037;-48
2023/10/23 06:20:47;;;;;;;6.97;2.33;;;;;;;;;;5072843;28;20033;-46
2023/10/23 06:23:14;;;;;;;7.28;2.70;;;;;;;;;;5072288;28;20064;-47
2023/10/23 06:25:41;;;;;;;5.10;2.42;;;;;;;;;;5072725;28;20078;-45
2023/10/23 06:28:08;;;;;;;7.80;2.65;;;;;;;;;;5072633;28;20765;-47
2023/10/23 06:30:36;;;;;;;7.05;2.03;;;;;;;;;;5072739;28;20394;-45
2023/10/23 06:33:03;;;;;;;5.57;2.28;;;;;;;;;;5072545;28;20470;-46
2023/10/23 06:35:30;;;;;;;4.57;2.08;;;;;;;;;;5072413;28;20044;-45
2023/10/23 06:37:57;;;;;;;5.20;2.70;;;;;;;;;;5072515;28;20039;-46
2023/10/23 06:40:24;;;;;;;4.60;2.15;;;;;;;;;;5054475;28;20080;-46
2023/10/23 06:42:51;;;;;;;5.25;2.13;;;;;;;;;;5072239;28;20046;-47
2023/10/23 06:45:18;;;;;;;6.82;2.80;;;;;;;;;;5072038;28;20032;-51
2023/10/23 06:47:48;;;;;;;7.50;2.80;;;;;;;;;;5072263;28;20032;-47
2023/10/23 06:50:16;;;;;;;4.72;2.45;;;;;;;;;;5071985;28;20049;-48
2023/10/23 06:52:46;;;;;;;6.85;2.85;;;;;;;;;;5072393;28;20106;-47
2023/10/23 06:55:13;;;;;;;5.07;2.30;;;;;;;;;;5071832;28;20036;-46
2023/10/23 06:57:40;;;;;;;7.93;2.35;;;;;;;;;;5072166;28;20110;-47
2023/10/23 07:00:07;;;;;;;5.72;2.60;;;;;;;;;;5072136;28;20028;-47
2023/10/23 07:02:34;;;;;;;4.35;2.33;;;;;;;;;;5072025;28;20024;-47
2023/10/23 07:05:02;;;;;;;5.20;2.38;;;;;;;;;;5072093;28;20044;-51
2023/10/23 07:07:29;;;;;;;8.48;2.55;;;;;;;;;;5071830;28;20107;-47
2023/10/23 07:09:58;;;;;;;6.25;3.00;;;;;;;;;;5071779;28;20043;-48
2023/10/23 07:12:26;;;;;;;5.40;2.67;;;;;;;;;;5071672;28;20037;-49
2023/10/23 07:14:53;;;;;;;5.25;2.28;;;;;;;;;;5071825;28;20157;-48
2023/10/23 07:17:20;;;;;;;8.52;3.17;;;;;;;;;;5071880;28;20055;-47
2023/10/23 07:19:47;;;;;;;4.40;2.38;;;;;;;;;;5071714;28;20024;-46
2023/10/23 07:22:14;;;;;;;6.45;2.42;;;;;;;;;;5071635;28;20028;-45
2023/10/23 07:24:41;;;;;;;4.80;2.45;;;;;;;;;;5054057;28;20028;-46
2023/10/23 07:27:11;;;;;;;6.05;2.53;;;;;;;;;;5071758;28;20056;-49
2023/10/23 07:29:38;;;;;;;5.90;2.75;;;;;;;;;;5071910;28;20498;-46
2023/10/23 07:32:06;;;;;;;5.15;2.42;;;;;;;;;;5053468;28;20036;-46
2023/10/23 07:34:33;;;;;;;8.15;2.58;;;;;;;;;;5071552;28;20399;-46
2023/10/23 07:37:00;;;;;;;5.95;2.72;;;;;;;;;;5071658;28;20032;-46
2023/10/23 07:39:26;;;;;;;6.07;2.80;;;;;;;;;;5071606;28;20035;-46
2023/10/23 07:41:54;;;;;;;6.22;2.50;;;;;;;;;;5053345;28;20028;-46
2023/10/23 07:44:21;;;;;;;5.75;2.60;;;;;;;;;;5071448;28;20062;-45
2023/10/23 07:46:48;;;;;;;10.82;2.35;;;;;;;;;;5071472;28;20021;-46
2023/10/23 07:49:15;;;;;;;4.90;2.72;;;;;;;;;;5071238;28;20033;-46
2023/10/23 07:51:42;;;;;;;7.75;2.38;;;;;;;;;;5071346;28;20039;-49
2023/10/23 07:54:09;;;;;;;7.55;2.70;;;;;;;;;;5071340;28;20032;-46
2023/10/23 07:56:36;;;;;;;6.35;2.85;;;;;;;;;;5074011;28;20028;-46
2023/10/23 07:59:03;;;;;;;7.93;2.78;;;;;;;;;;5075518;28;20048;-46
2023/10/23 08:01:29;;;;;;;8.05;2.80;;;;;;;;;;5075526;28;20032;-48
2023/10/23 08:03:56;;;;;;;6.63;3.00;;;;;;;;;;5075413;28;20082;-46
2023/10/23 08:06:23;;;;;;;6.72;2.72;;;;;;;;;;5075394;28;20032;-46
2023/10/23 08:08:50;;;;;;;8.10;2.67;;;;;;;;;;5075318;28;20027;-48
2023/10/23 08:11:17;;;;;;;6.80;2.40;;;;;;;;;;5075293;28;20037;-45
2023/10/23 08:13:44;;;;;;;6.03;2.65;;;;;;;;;;5075080;28;20067;-46
2023/10/23 08:16:11;;;;;;;6.10;2.90;;;;;;;;;;5075173;28;20028;-45
2023/10/23 08:18:38;;;;;;;5.47;2.65;;;;;;;;;;5075177;28;20028;-45
2023/10/23 08:21:10;;;;;;;6.93;3.20;;;;;;;;;;5075103;28;20029;-47
2023/10/23 08:23:37;;;;;;;7.90;2.60;;;;;;;;;;5074863;28;20094;-46
2023/10/23 08:26:04;;;;;;;4.65;2.63;;;;;;;;;;5074982;28;20024;-46
2023/10/23 08:28:31;;;;;;;5.10;2.38;;;;;;;;;;5074958;28;20021;-48
2023/10/23 08:30:58;;;;;;;5.30;2.67;;;;;;;;;;5074880;28;20035;-46
2023/10/23 08:33:25;;;;;;;7.13;2.33;;;;;;;;;;5074756;28;20506;-48
2023/10/23 08:35:52;;;;;;;5.65;2.53;;;;;;;;;;5074781;28;20079;-47
2023/10/23 08:38:19;;;;;;;5.88;2.55;;;;;;;;;;5074773;28;20032;-47
2023/10/23 08:40:46;;;;;;;6.60;2.90;;;;;;;;;;5074815;28;20549;-46
2023/10/23 08:43:13;;;;;;;6.05;2.40;;;;;;;;;;5074587;28;20025;-47
2023/10/23 08:45:43;;;;;;;5.32;2.45;;;;;;;;;;5074703;28;20028;-47
2023/10/23 08:48:13;;;;;;;4.72;2.53;;;;;;;;;;5074565;28;21879;-47
2023/10/23 08:50:41;;;;;;;5.00;2.65;;;;;;;;;;5074558;28;20487;-48
2023/10/23 08:53:11;;;;;;;5.63;2.90;;;;;;;;;;5074299;28;20557;-47
2023/10/23 08:55:39;;;;;;;4.55;2.40;;;;;;;;;;5074444;28;20483;-48
2023/10/23 08:58:06;;;;;;;5.22;2.30;;;;;;;;;;5074443;28;20502;-47
2023/10/23 09:00:33;;;;;;;5.00;2.53;;;;;;;;;;5074315;28;20027;-47
2023/10/23 09:03:00;;;;;;;5.43;2.67;;;;;;;;;;5074086;28;20542;-48
2023/10/23 09:05:27;;;;;;;5.38;2.40;;;;;;;;;;5074230;28;20047;-49
2023/10/23 09:07:54;;;;;;;3.25;1.85;;;;;;;;;;5074095;28;20029;-47
2023/10/23 09:10:21;;;;;;;5.55;2.50;;;;;;;;;;5074071;28;20032;-47
2023/10/23 09:12:56;;;;;;;5.35;2.08;;;;;;;;;;5074053;28;20028;-47
2023/10/23 09:15:26;;;;;;;4.90;2.78;;;;;;;;;;5073854;28;20398;-47
2023/10/23 09:17:53;;;;;;;5.10;2.35;;;;;;;;;;5074095;28;20051;-47
2023/10/23 09:20:26;;;;;;;7.07;2.60;;;;;;;;;;5074050;28;20539;-47
2023/10/23 09:22:54;;;;;;;4.72;2.33;;;;;;;;;;5073728;28;20040;-47
2023/10/23 09:25:21;;;;;;;4.20;2.20;;;;;;;;;;5073824;28;20137;-47
2023/10/23 09:27:49;;;;;;;5.22;1.95;;;;;;;;;;5073900;28;20070;-48
2023/10/23 09:30:21;;;;;;;2.70;1.75;;;;;;;;;;5073806;28;20028;-46
2023/10/23 09:32:48;;;;;;;;;;;;;;;;;;5074283;28;20068;-47
2023/10/23 09:35:15;;;;;;;4.38;2.22;;;;;;;;;;5073688;28;19916;-47
2023/10/23 09:37:42;;;;;;;4.45;2.25;;;;;;;;;;5073700;28;20024;-47
2023/10/23 09:40:11;;;;;;;3.47;1.85;;;;;;;;;;5073716;28;20031;-47
2023/10/23 09:42:38;;;;;;;4.47;2.03;;;;;;;;;;5073437;28;20111;-47
2023/10/23 09:45:06;;;;;;;4.30;2.08;;;;;;;;;;5073556;28;20029;-47
2023/10/23 09:47:35;;;;;;;5.28;2.58;;;;;;;;;;5073555;28;20028;-47
2023/10/23 09:50:03;;;;;;;3.65;2.17;;;;;;;;;;5072990;28;20067;-47
2023/10/23 09:52:33;;;;;;;5.22;2.10;;;;;;;;;;5073174;28;20399;-47
2023/10/23 09:55:09;;;;;;;6.47;2.42;;;;;;;;;;5073206;28;20044;-47
2023/10/23 09:57:40;;;;;;;3.53;2.20;;;;;;;;;;5073354;28;20025;-47
2023/10/23 10:00:14;;;;;;;3.85;2.03;;;;;;;;;;5072953;28;20054;-46
2023/10/23 10:02:44;;;;;;;7.90;2.30;;;;;;;;;;5073130;28;20035;-46
2023/10/23 10:05:15;;;;;;;7.68;2.30;;;;;;;;;;5073125;28;20509;-46
2023/10/23 10:07:51;;;;;;;5.60;2.40;;;;;;;;;;5072774;28;20047;-47
2023/10/23 10:10:19;;;;;;;3.70;1.85;;;;;;;;;;5072711;28;20036;-46
2023/10/23 10:12:47;;;;;;;4.22;1.90;;;;;;;;;;5072384;28;20505;-47
2023/10/23 10:15:15;;;;;;;2.90;1.80;;;;;;;;;;5072879;28;20036;-47
2023/10/23 10:17:43;;;;;;;3.95;2.13;;;;;;;;;;5072879;28;20237;-47
2023/10/23 10:20:10;;;;;;;3.25;2.03;;;;;;;;;;5072574;28;20064;-47
2023/10/23 10:22:42;;;;;;;2.83;1.85;;;;;;;;;;5072832;28;20032;-47
2023/10/23 10:25:11;;;;;;;2.53;1.98;;;;;;;;;;5072778;28;20037;-47
2023/10/23 10:27:38;;;;;;;3.38;2.10;;;;;;;;;;5072348;28;20032;-47
2023/10/23 10:30:06;;;;;;;4.30;2.30;;;;;;;;;;5072435;28;20028;-46
2023/10/23 10:32:33;;;;;;;8.05;2.50;;;;;;;;;;5072442;28;20039;-46
2023/10/23 10:35:03;;;;;;;3.38;1.88;;;;;;;;;;5072445;28;20495;-45
2023/10/23 10:37:33;;;;;;;6.15;1.95;;;;;;;;;;5072110;28;20044;-46
2023/10/23 10:40:00;;;;;;;4.60;2.10;;;;;;;;;;5071683;28;20367;-46
2023/10/23 10:42:30;;;;;;;3.63;1.77;;;;;;;;;;5071557;28;20024;-46
2023/10/23 10:45:01;;;;;;;4.38;2.08;;;;;;;;;;5069234;28;20509;-46
2023/10/23 10:47:37;;;;;;;3.15;1.58;;;;;;;;;;5071601;28;20082;-48
2023/10/23 10:50:05;;;;;;;4.00;1.95;;;;;;;;;;5069894;28;20494;-45
2023/10/23 10:52:35;;;;;;;6.43;1.90;;;;;;;;;;5066802;28;20071;-43
2023/10/23 10:55:08;;;;;;;4.65;1.65;;;;;;;;;;5069325;28;20037;-43
2023/10/23 10:57:37;;;;;;;9.98;2.03;;;;;;;;;;5071344;28;20028;-43
2023/10/23 11:00:05;;;;;;;4.28;2.10;;;;;;;;;;5071064;28;20020;-43
2023/10/23 11:02:32;;;;;;;7.25;2.20;;;;;;;;;;5069654;28;20040;-43
2023/10/23 11:04:59;;;;;;;3.47;1.90;;;;;;;;;;5071260;28;20429;-42
2023/10/23 11:07:27;;;;;;;2.70;2.03;;;;;;;;;;5071263;28;20094;-45
2023/10/23 11:09:55;;;;;;;5.13;2.30;;;;;;;;;;5070834;28;20484;-43
2023/10/23 11:12:24;;;;;;;4.07;1.77;;;;;;;;;;5069540;28;20084;-46
2023/10/23 11:14:51;;;;;;;3.17;1.63;;;;;;;;;;5070768;28;20036;-51
2023/10/23 11:17:18;;;;;;;2.55;1.50;;;;;;;;;;5070763;28;20442;-49
2023/10/23 11:19:45;;;;;;;7.97;1.60;;;;;;;;;;5071688;28;20475;-49
2023/10/23 11:22:13;;;;;;;2.42;1.60;;;;;;;;;;5069028;28;20059;-52
2023/10/23 11:24:40;;;;;;;2.83;1.80;;;;;;;;;;5070451;28;20039;-52
2023/10/23 11:27:08;;;;;;;4.25;1.60;;;;;;;;;;5071027;28;20020;-51
2023/10/23 11:29:39;;;;;;;3.28;1.50;;;;;;;;;;5070756;28;20028;-51
2023/10/23 11:32:10;;;;;;;3.55;1.75;;;;;;;;;;5070870;28;20025;-51
2023/10/23 11:34:37;;;;;;;5.97;1.80;;;;;;;;;;5069580;28;20044;-50
2023/10/23 11:37:08;;;;;;;6.38;2.10;;;;;;;;;;5071408;28;20040;-54
2023/10/23 11:39:39;;;;;;;8.27;1.75;;;;;;;;;;5071474;28;20074;-50
2023/10/23 11:42:06;;;;;;;5.15;2.15;;;;;;;;;;5071356;28;20072;-50
2023/10/23 11:44:37;;;;;;;5.43;1.85;;;;;;;;;;5069535;28;20029;-51
2023/10/23 11:47:04;;;;;;;3.75;2.08;;;;;;;;;;5071324;28;20024;-51
2023/10/23 11:49:32;;;;;;;4.00;1.60;;;;;;;;;;5071229;28;20060;-52
2023/10/23 11:51:59;;;;;;;3.42;1.60;;;;;;;;;;5070643;28;20087;-50
2023/10/23 11:54:26;;;;;;;4.28;1.75;;;;;;;;;;5052795;28;20068;-50
2023/10/23 11:56:56;;;;;;;5.50;2.00;;;;;;;;;;5070705;28;20032;-51
2023/10/23 11:59:23;;;;;;;5.45;1.90;;;;;;;;;;5071244;28;20028;-51
2023/10/23 12:01:52;;;;;;;4.20;1.90;;;;;;;;;;5070162;28;20032;-50
2023/10/23 12:04:19;;;;;;;5.90;1.70;;;;;;;;;;5071120;28;20040;-52
2023/10/23 12:06:46;;;;;;;2.75;1.48;;;;;;;;;;5071355;28;20092;-50
2023/10/23 12:09:13;;;;;;;12.63;2.13;;;;;;;;;;5071242;28;20028;-50
2023/10/23 12:11:41;;;;;;;4.20;1.58;;;;;;;;;;5070498;28;20040;-51
2023/10/23 12:14:08;;;;;;;3.45;1.58;;;;;;;;;;5070504;28;20033;-50
2023/10/23 12:16:35;;;;;;;2.67;1.30;;;;;;;;;;5070301;28;20413;-50
2023/10/23 12:19:03;;;;;;;4.60;1.45;;;;;;;;;;5071105;28;20098;-51
2023/10/23 12:21:30;;;;;;;4.25;1.60;;;;;;;;;;5070990;28;20038;-52
2023/10/23 12:23:57;;;;;;;3.90;1.80;;;;;;;;;;5071091;28;20032;-52
2023/10/23 12:26:25;;;;;;;8.75;1.73;;;;;;;;;;5071032;28;20417;-51
2023/10/23 12:28:52;;;;;;;2.95;1.42;;;;;;;;;;5070576;28;20042;-51
2023/10/23 12:31:19;;;;;;;4.85;1.45;;;;;;;;;;5052381;28;20119;-50
2023/10/23 12:33:46;;;;;;;2.67;1.52;;;;;;;;;;5070511;28;20047;-47
2023/10/23 12:36:14;;;;;;;4.90;1.50;;;;;;;;;;5070577;28;20386;-47
2023/10/23 12:38:41;;;;;;;4.78;1.90;;;;;;;;;;5052524;28;20027;-48
2023/10/23 12:41:08;;;;;;;2.40;1.20;;;;;;;;;;5052733;28;20094;-46
2023/10/23 12:43:35;;;;;;;3.90;1.40;;;;;;;;;;5073916;28;20035;-46
2023/10/23 12:46:02;;;;;;;3.35;1.33;;;;;;;;;;5073975;28;20043;-47
2023/10/23 12:48:29;;;;;;;3.42;1.40;;;;;;;;;;5074260;28;20063;-50
2023/10/23 12:50:56;;;;;;;2.50;1.30;;;;;;;;;;5074094;28;20021;-47
2023/10/23 12:53:24;;;;;;;4.40;1.58;;;;;;;;;;5073962;28;20028;-49
2023/10/23 12:55:51;;;;;;;6.55;1.40;;;;;;;;;;5073760;28;20483;-47
2023/10/23 12:58:18;;;;;;;11.27;2.13;;;;;;;;;;5073503;28;20016;-48
2023/10/23 13:00:45;;;;;;;4.32;1.42;;;;;;;;;;5072247;28;20637;-49
2023/10/23 13:03:12;;;;;;;9.00;1.85;;;;;;;;;;5073634;28;20426;-47
2023/10/23 13:05:39;;;;;;;2.88;1.50;;;;;;;;;;5055699;28;20024;-48
2023/10/23 13:08:06;;;;;;;4.50;1.90;;;;;;;;;;5073793;28;20078;-47
2023/10/23 13:10:33;;;;;;;9.43;1.92;;;;;;;;;;5073585;28;20047;-47
2023/10/23 13:13:00;;;;;;;7.32;1.80;;;;;;;;;;5055330;28;20028;-47
2023/10/23 13:15:27;;;;;;;3.85;1.58;;;;;;;;;;5073406;28;20056;-47
2023/10/23 13:17:56;;;;;;;8.60;2.10;;;;;;;;;;5073669;28;20059;-47
2023/10/23 13:20:23;;;;;;;5.32;1.80;;;;;;;;;;5073418;28;20035;-47
2023/10/23 13:22:50;;;;;;;4.00;2.00;;;;;;;;;;5073693;28;20028;-48
2023/10/23 13:25:18;;;;;;;3.97;1.63;;;;;;;;;;5073069;28;20040;-47
2023/10/23 13:27:45;;;;;;;7.30;1.88;;;;;;;;;;5073201;28;20033;-47
2023/10/23 13:30:12;;;;;;;5.45;1.52;;;;;;;;;;5073285;28;20027;-50
2023/10/23 13:32:39;;;;;;;3.38;1.45;;;;;;;;;;5073278;28;20036;-48
2023/10/23 13:35:07;;;;;;;5.97;1.80;;;;;;;;;;5072768;28;20039;-48
2023/10/23 13:37:35;;;;;;;12.07;2.17;;;;;;;;;;5072862;28;20036;-47
2023/10/23 13:40:06;;;;;;;8.15;2.05;;;;;;;;;;5055328;28;20493;-48
2023/10/23 13:42:34;;;;;;;4.33;1.77;;;;;;;;;;5072480;28;20036;-48
2023/10/23 13:45:01;;;;;;;21.23;2.33;;;;;;;;;;5073201;28;20261;-47
2023/10/23 13:47:28;;;;;;;7.68;1.75;;;;;;;;;;5073112;28;20391;-49
2023/10/23 13:49:57;;;;;;;8.15;1.95;;;;;;;;;;5066860;28;20080;-48
2023/10/23 13:52:25;;;;;;;5.85;2.15;;;;;;;;;;5072673;28;20029;-48
2023/10/23 13:54:52;;;;;;;4.97;1.55;;;;;;;;;;5072297;28;20032;-48
2023/10/23 13:57:19;;;;;;;2.58;1.50;;;;;;;;;;5072977;28;20034;-48
2023/10/23 13:59:47;;;;;;;6.43;2.10;;;;;;;;;;5072653;28;20482;-48
2023/10/23 14:02:14;;;;;;;5.90;1.67;;;;;;;;;;5072193;28;20029;-48
2023/10/23 14:04:41;;;;;;;7.45;1.90;;;;;;;;;;5072613;28;20043;-47
2023/10/23 14:07:08;;;;;;;7.68;2.22;;;;;;;;;;5072733;28;20025;-48
2023/10/23 14:09:35;;;;;;;8.07;1.88;;;;;;;;;;5072584;28;20024;-48
2023/10/23 14:12:02;;;;;;;12.15;2.40;;;;;;;;;;5072644;28;20082;-49
2023/10/23 14:14:29;;;;;;;17.88;1.88;;;;;;;;;;5071715;28;20509;-48
2023/10/23 14:17:00;;;;;;;6.03;1.80;;;;;;;;;;5071271;28;20101;-47
2023/10/23 14:19:27;;;;;;;7.20;1.70;;;;;;;;;;5071908;28;20036;-48
2023/10/23 14:21:54;;;;;;;6.65;1.75;;;;;;;;;;5063612;28;20035;-48
2023/10/23 14:24:24;;;;;;;4.75;1.23;;;;;;;;;;5063564;28;20077;-47
2023/10/23 14:26:52;;;;;;;5.60;1.33;;;;;;;;;;5057183;28;20395;-48
2023/10/23 14:29:19;;;;;;;5.35;1.45;;;;;;;;;;5053581;28;20033;-49
2023/10/23 14:31:46;;;;;;;5.00;1.83;;;;;;;;;;5055866;28;20631;-49
2023/10/23 14:34:13;;;;;;;4.75;1.63;;;;;;;;;;5071970;28;20114;-48
2023/10/23 14:36:40;;;;;;;8.07;1.65;;;;;;;;;;5058637;28;20032;-48
2023/10/23 14:39:07;;;;;;;3.95;1.48;;;;;;;;;;5071746;28;20027;-48
2023/10/23 14:41:34;;;;;;;6.00;1.70;;;;;;;;;;5071348;28;20021;-48